createdAt,value
2022-12-24T00:03:34.217Z,17.80
2022-12-24T00:09:36.036Z,14.75
2022-12-24T00:15:37.772Z,16.75
2022-12-24T00:21:39.777Z,17.55
2022-12-24T00:27:41.523Z,12.35
2022-12-24T00:33:43.827Z,12.07
2022-12-24T00:39:45.647Z,12.13
2022-12-24T00:45:47.443Z,11.57
2022-12-24T00:51:49.388Z,10.15
2022-12-24T00:57:51.107Z,9.48
2022-12-24T01:04:13.440Z,8.70
2022-12-24T01:10:20.168Z,10.65
2022-12-24T01:16:22.059Z,9.45
2022-12-24T01:22:23.874Z,12.68
2022-12-24T01:28:25.661Z,11.80
2022-12-24T01:34:27.405Z,14.52
2022-12-24T01:40:47.704Z,9.95
2022-12-24T01:46:55.078Z,10.15
2022-12-24T01:52:57.639Z,13.98
2022-12-24T01:59:06.050Z,14.35
2022-12-24T02:05:30.790Z,20.30
2022-12-24T02:11:33.364Z,14.27
2022-12-24T02:17:37.809Z,16.42
2022-12-24T02:24:02.119Z,17.63
2022-12-24T02:30:10.202Z,16.70
2022-12-24T02:36:19.794Z,21.63
2022-12-24T02:42:26.032Z,17.48
2022-12-24T02:48:30.076Z,20.42
2022-12-24T02:54:32.962Z,14.30
2022-12-24T03:01:16.308Z,17.13
2022-12-24T03:07:30.117Z,23.55
2022-12-24T03:13:32.118Z,17.75
2022-12-24T03:19:35.090Z,23.38
2022-12-24T03:25:42.368Z,19.90
2022-12-24T03:31:52.313Z,19.88
2022-12-24T03:37:54.080Z,16.60
2022-12-24T03:43:55.812Z,18.20
2022-12-24T03:49:58.387Z,24.67
2022-12-24T03:56:00.172Z,18.83
2022-12-24T04:02:02.125Z,22.73
2022-12-24T04:08:04.041Z,19.33
2022-12-24T04:14:05.774Z,16.50
2022-12-24T04:20:08.141Z,22.00
2022-12-24T04:26:12.339Z,18.80
2022-12-24T04:32:14.773Z,27.98
2022-12-24T04:38:16.609Z,24.23
2022-12-24T04:44:18.304Z,21.60
2022-12-24T04:50:19.987Z,26.42
2022-12-24T04:56:24.870Z,25.65
2022-12-24T05:02:26.849Z,25.23
2022-12-24T05:08:28.804Z,22.83
2022-12-24T05:14:30.497Z,33.35
2022-12-24T05:20:32.296Z,35.35
2022-12-24T05:26:41.023Z,27.30
2022-12-24T05:32:42.722Z,23.67
2022-12-24T05:38:44.486Z,27.98
2022-12-24T05:44:46.188Z,31.20
2022-12-24T05:50:47.876Z,28.95
2022-12-24T05:56:49.621Z,26.77
2022-12-24T06:02:51.446Z,26.50
2022-12-24T06:08:55.337Z,27.52
2022-12-24T06:14:57.065Z,21.33
2022-12-24T06:20:59.342Z,28.75
2022-12-24T06:27:01.067Z,34.33
2022-12-24T06:33:03.050Z,28.52
2022-12-24T06:39:04.781Z,29.52
2022-12-24T06:45:08.612Z,24.40
2022-12-24T06:51:10.680Z,32.03
2022-12-24T06:57:12.408Z,32.60
2022-12-24T07:03:14.265Z,25.33
2022-12-24T07:09:16.158Z,45.95
2022-12-24T07:15:18.044Z,31.35
2022-12-24T07:21:19.791Z,39.97
2022-12-24T07:27:21.950Z,29.02
2022-12-24T07:33:24.455Z,27.42
2022-12-24T07:39:26.624Z,30.67
2022-12-24T07:45:28.300Z,36.17
2022-12-24T07:51:30.159Z,36.00
2022-12-24T07:57:31.896Z,43.03
2022-12-24T08:03:33.711Z,25.45
2022-12-24T08:09:36.760Z,37.08
2022-12-24T08:15:38.494Z,34.20
2022-12-24T08:21:40.489Z,29.20
2022-12-24T08:27:42.249Z,28.40
2022-12-24T08:33:43.915Z,36.03
2022-12-24T08:39:45.595Z,35.95
2022-12-24T08:45:49.488Z,31.52
2022-12-24T08:51:51.925Z,30.77
2022-12-24T08:57:53.910Z,39.75
2022-12-24T09:03:55.610Z,29.88
2022-12-24T09:09:57.407Z,25.83
2022-12-24T09:15:59.493Z,33.25
2022-12-24T09:22:01.288Z,23.13
2022-12-24T09:28:02.959Z,20.33
2022-12-24T09:34:04.637Z,21.05
2022-12-24T09:40:06.954Z,23.00
2022-12-24T09:46:24.913Z,20.85
2022-12-24T09:52:35.695Z,22.50
2022-12-24T09:58:41.694Z,20.33
2022-12-24T10:04:44.872Z,19.52
2022-12-24T10:10:56.249Z,19.73
2022-12-24T10:17:28.573Z,17.35
2022-12-24T10:24:11.242Z,19.00
2022-12-24T10:30:17.875Z,21.00
2022-12-24T10:36:25.980Z,17.10
2022-12-24T10:42:36.706Z,29.25
2022-12-24T10:48:50.501Z,30.10
2022-12-24T10:55:28.628Z,28.30
2022-12-24T11:01:45.681Z,24.25
2022-12-24T11:08:03.771Z,33.83
2022-12-24T11:14:05.832Z,30.52
2022-12-24T11:20:24.692Z,25.70
2022-12-24T11:26:30.122Z,21.55
2022-12-24T11:32:31.984Z,30.17
2022-12-24T11:38:35.281Z,24.08
2022-12-24T11:44:48.775Z,26.05
2022-12-24T11:51:06.385Z,27.17
2022-12-24T11:57:13.065Z,20.20
2022-12-24T12:03:44.537Z,20.85
2022-12-24T12:09:52.079Z,22.33
2022-12-24T12:16:22.117Z,25.88
2022-12-24T12:22:51.732Z,20.10
2022-12-24T12:28:58.757Z,23.83
2022-12-24T12:35:17.434Z,22.65
2022-12-24T12:41:40.020Z,25.83
2022-12-24T12:48:01.221Z,22.13
2022-12-24T12:54:22.246Z,21.80
2022-12-24T13:00:24.083Z,22.92
2022-12-24T13:06:38.520Z,24.42
2022-12-24T13:13:20.549Z,19.27
2022-12-24T13:20:04.155Z,26.88
2022-12-24T13:26:12.037Z,23.02
2022-12-24T13:32:37.928Z,23.33
2022-12-24T13:38:58.296Z,19.98
2022-12-24T13:45:31.247Z,25.55
2022-12-24T13:51:33.673Z,17.08
2022-12-24T13:57:57.495Z,19.83
2022-12-24T14:04:02.293Z,21.50
2022-12-24T14:10:06.422Z,21.13
2022-12-24T14:16:27.542Z,25.88
2022-12-24T14:22:34.341Z,26.67
2022-12-24T14:28:41.712Z,24.63
2022-12-24T14:34:43.557Z,21.33
2022-12-24T14:41:09.395Z,26.48
2022-12-24T14:47:25.712Z,19.25
2022-12-24T14:53:30.165Z,28.30
2022-12-24T14:59:40.049Z,15.60
2022-12-24T15:05:42.812Z,23.60
2022-12-24T15:11:46.499Z,22.00
2022-12-24T15:17:48.573Z,29.80
2022-12-24T15:23:51.947Z,25.73
2022-12-24T15:29:57.158Z,21.05
2022-12-24T15:35:58.914Z,19.75
2022-12-24T15:42:16.043Z,24.38
2022-12-24T15:48:25.536Z,20.88
2022-12-24T15:54:27.361Z,19.00
2022-12-24T16:00:32.388Z,17.60
2022-12-24T16:06:54.578Z,20.85
2022-12-24T16:12:56.371Z,20.55
2022-12-24T16:19:02.605Z,17.02
2022-12-24T16:25:23.335Z,24.75
2022-12-24T16:31:38.201Z,17.25
2022-12-24T16:43:50.847Z,23.70
2022-12-24T16:49:53.043Z,27.85
2022-12-24T16:55:55.898Z,28.83
2022-12-24T17:01:57.813Z,23.33
2022-12-24T17:08:00.922Z,31.27
2022-12-24T17:14:08.015Z,31.73
2022-12-24T17:20:11.038Z,24.30
2022-12-24T17:26:15.343Z,29.77
2022-12-24T17:32:17.243Z,23.10
2022-12-24T17:38:18.960Z,26.48
2022-12-24T17:44:20.660Z,22.98
2022-12-24T17:50:22.556Z,24.20
2022-12-24T17:56:24.524Z,29.77
2022-12-24T18:02:26.490Z,30.77
2022-12-24T18:08:28.815Z,29.08
2022-12-24T18:14:30.557Z,24.85
2022-12-24T18:20:34.499Z,23.65
2022-12-24T18:26:36.384Z,28.17
2022-12-24T18:32:38.518Z,22.92
2022-12-24T18:38:40.811Z,23.80
2022-12-24T18:44:42.687Z,26.83
2022-12-24T18:50:53.729Z,28.77
2022-12-24T18:56:55.572Z,29.40
2022-12-24T19:02:57.350Z,25.48
2022-12-24T19:09:01.196Z,31.02
2022-12-24T19:15:03.756Z,22.93
2022-12-24T19:21:11.228Z,24.50
2022-12-24T19:27:12.999Z,29.83
2022-12-24T19:33:14.799Z,23.75
2022-12-24T19:39:16.664Z,30.17
2022-12-24T19:45:20.029Z,26.27
2022-12-24T19:51:22.425Z,29.38
2022-12-24T19:57:24.163Z,32.80
2022-12-24T20:03:26.287Z,32.22
2022-12-24T20:09:28.931Z,23.35
2022-12-24T20:15:30.787Z,33.95
2022-12-24T20:21:33.382Z,36.88
2022-12-24T20:27:35.216Z,31.30
2022-12-24T20:33:37.093Z,27.35
2022-12-24T20:39:38.942Z,38.25
2022-12-24T20:45:41.145Z,36.22
2022-12-24T20:51:43.070Z,37.15
2022-12-24T20:57:44.873Z,32.28
2022-12-24T21:03:46.992Z,28.83
2022-12-24T21:09:48.729Z,30.13
2022-12-24T21:15:50.466Z,30.70
2022-12-24T21:21:52.482Z,35.70
2022-12-24T21:27:57.489Z,32.83
2022-12-24T21:33:59.235Z,29.88
2022-12-24T21:40:00.993Z,29.27
2022-12-24T21:46:08.213Z,35.50
2022-12-24T21:52:09.971Z,28.05
2022-12-24T21:58:11.741Z,35.83
2022-12-24T22:04:13.527Z,34.78
2022-12-24T22:10:33.911Z,34.03
2022-12-24T22:16:35.770Z,29.42
2022-12-24T22:22:37.774Z,29.67
2022-12-24T22:28:39.571Z,28.90
2022-12-24T22:34:41.466Z,21.33
2022-12-24T22:40:43.170Z,30.00
2022-12-24T22:46:45.168Z,35.45
2022-12-24T22:52:46.991Z,31.60
2022-12-24T22:58:56.430Z,35.58
2022-12-24T23:04:58.347Z,32.42
2022-12-24T23:11:12.441Z,27.98
2022-12-24T23:17:14.446Z,36.67
2022-12-24T23:23:16.427Z,29.55
2022-12-24T23:29:18.633Z,30.05
2022-12-24T23:35:20.357Z,36.80
2022-12-24T23:41:22.401Z,33.65
2022-12-24T23:47:24.123Z,27.25
2022-12-24T23:53:25.800Z,28.80
2022-12-24T23:59:27.667Z,26.55
